This is the latest recevied weather packets stored in our database for station/object OM6ACB-6. If no packets are shown the sender has not sent any weather packets the latest 10 day(s).
| Time | Temp. | Humidity | Pressure | Rain* | Wind** | Luminosity | Snow |
|---|---|---|---|---|---|---|---|
| 1778108154 | 16.11° C | 24% | 1012.5 hPa | 0 mm | - | - | - |
| 1778107553 | 16.11° C | 24% | 1012.5 hPa | 0 mm | - | - | - |
| 1778106953 | 17.22° C | 24% | 1012.6 hPa | 0 mm | - | - | - |
| 1778106353 | 17.22° C | 24% | 1012.7 hPa | 0 mm | - | - | - |
| 1778105753 | 17.22° C | 24% | 1012.7 hPa | 0 mm | - | - | - |
| 1778105152 | 17.22° C | 24% | 1012.7 hPa | 0 mm | - | - | - |
| 1778104552 | 17.22° C | 24% | 1012.7 hPa | 0 mm | - | - | - |
| 1778103952 | 17.22° C | 24% | 1012.7 hPa | 0 mm | - | - | - |
| 1778103351 | 17.22° C | 24% | 1012.6 hPa | 0 mm | - | - | - |
| 1778102751 | 17.22° C | 24% | 1012.5 hPa | 0 mm | - | - | - |
| 1778102151 | 17.22° C | 24% | 1012.4 hPa | 0 mm | - | - | - |
| 1778101550 | 17.22° C | 24% | 1012.3 hPa | 0 mm | - | - | - |
| 1778100950 | 16.11° C | 24% | 1012 hPa | 0 mm | - | - | - |
| 1778100350 | 16.11° C | 24% | 1011.9 hPa | 0 mm | - | - | - |
| 1778099750 | 16.67° C | 24% | 1012 hPa | 0 mm | - | - | - |
| 1778099149 | 17.22° C | 24% | 1012.2 hPa | 0 mm | - | - | - |
| 1778098549 | 17.78° C | 24% | 1012.4 hPa | 0 mm | - | - | - |
| 1778097949 | 17.78° C | 24% | 1012.4 hPa | 0 mm | - | - | - |
| 1778097348 | 17.22° C | 24% | 1012.4 hPa | 0 mm | - | - | - |
| 1778096748 | 17.22° C | 24% | 1012.3 hPa | 0 mm | - | - | - |
| 1778096148 | 17.22° C | 24% | 1012.2 hPa | 0 mm | - | - | - |
| 1778095548 | 17.22° C | 24% | 1011.9 hPa | 0 mm | - | - | - |
| 1778094947 | 16.67° C | 24% | 1011.8 hPa | 0 mm | - | - | - |
| 1778094347 | 17.22° C | 24% | 1011.7 hPa | 0 mm | - | - | - |
| 1778093747 | 17.22° C | 24% | 1011.7 hPa | 0 mm | - | - | - |
* Rain latest hour (hover to see other rain measurements)
** Current wind speed in m/s (hover to see current wind gust speed)